Time;durP1;ratioP1;P1;durP2;ratioP2;P2;SDS_P1;SDS_P2;PMS_P1;PMS_P2;Temp;Humidity;BMP_temperature;BMP_pressure;BME280_temperature;BME280_humidity;BME280_pressure;Samples;Min_cycle;Max_cycle;Signal;HPM_P1;HPM_P2
2022/05/12 00:02:01;;;;;;;;;;;;;;;10.70;92.42;100162.47;4972813;28;1878;-56
2022/05/12 00:04:29;;;;;;;;;;;;;;;10.67;92.83;100163.28;4972725;28;872;-56
2022/05/12 00:06:56;;;;;;;;;;;;;;;10.61;92.72;100159.34;4972709;28;886;-56
2022/05/12 00:09:23;;;;;;;;;;;;;;;10.52;92.66;100153.38;4971978;28;849;-56
2022/05/12 00:11:50;;;;;;;;;;;;;;;10.39;92.34;100152.97;4972702;28;827;-55
2022/05/12 00:14:17;;;;;;;;;;;;;;;10.18;92.56;100150.94;4972649;28;875;-55
2022/05/12 00:16:44;;;;;;;;;;;;;;;9.95;92.80;100154.03;4972669;28;860;-54
2022/05/12 00:19:12;;;;;;;;;;;;;;;9.79;93.46;100152.41;4972660;28;890;-54
2022/05/12 00:21:38;;;;;;;;;;;;;;;9.66;93.83;100151.16;4972805;28;1890;-56
2022/05/12 00:24:06;;;;;;;;;;;;;;;9.57;95.06;100154.28;4972638;28;963;-55
2022/05/12 00:26:34;;;;;;;;;;;;;;;9.55;95.98;100151.09;4972684;28;1242;-56
2022/05/12 00:29:02;;;;;;;;;;;;;;;9.51;96.21;100150.28;4972905;28;804;-54
2022/05/12 00:31:29;;;;;;;;;;;;;;;9.51;96.45;100149.50;4972682;28;859;-56
2022/05/12 00:33:55;;;;;;;;;;;;;;;9.49;97.42;100144.38;4972728;28;894;-56
2022/05/12 00:36:22;;;;;;;;;;;;;;;9.58;98.32;100155.88;4972587;28;879;-56
2022/05/12 00:38:49;;;;;;;;;;;;;;;9.64;97.94;100153.50;4972636;28;899;-55
2022/05/12 00:41:16;;;;;;;;;;;;;;;9.63;98.06;100151.16;4972450;28;1910;-55
2022/05/12 00:43:48;;;;;;;;;;;;;;;9.61;98.16;100154.31;4972676;28;820;-56
2022/05/12 00:46:16;;;;;;;;;;;;;;;9.57;98.66;100153.50;4972456;28;905;-56
2022/05/12 00:48:44;;;;;;;;;;;;;;;9.56;99.11;100158.22;4972399;28;827;-55
2022/05/12 00:51:13;;;;;;;;;;;;;;;9.64;99.61;100159.03;4972404;28;823;-55
2022/05/12 00:53:41;;;;;;;;;;;;;;;9.68;99.11;100159.06;4972350;28;943;-56
2022/05/12 00:56:10;;;;;;;;;;;;;;;9.69;98.99;100158.69;4972213;28;903;-55
2022/05/12 00:58:37;;;;;;;;;;;;;;;9.68;98.87;100150.78;4972257;28;891;-56
2022/05/12 01:01:05;;;;;;;;;;;;;;;9.67;98.93;100151.97;4972375;28;1970;-56
2022/05/12 01:03:32;;;;;;;;;;;;;;;9.70;98.92;100157.47;4972302;28;835;-55
2022/05/12 01:06:01;;;;;;;;;;;;;;;9.65;98.42;100149.59;4972275;28;878;-56
2022/05/12 01:08:28;;;;;;;;;;;;;;;9.46;97.99;100152.66;4972163;28;933;-55
2022/05/12 01:10:58;;;;;;;;;;;;;;;9.26;98.23;100150.19;4972107;28;875;-55
2022/05/12 01:13:25;;;;;;;;;;;;;;;9.17;99.10;100156.03;4972104;28;915;-55
2022/05/12 01:15:55;;;;;;;;;;;;;;;9.20;99.42;100160.78;4972084;28;985;-56
2022/05/12 01:18:22;;;;;;;;;;;;;;;9.26;99.61;100154.88;4972717;28;796;-55
2022/05/12 01:20:50;;;;;;;;;;;;;;;9.18;98.69;100154.06;4975266;28;1954;-55
2022/05/12 01:23:22;;;;;;;;;;;;;;;9.19;99.37;100159.19;4958566;28;862;-55
2022/05/12 01:25:48;;;;;;;;;;;;;;;9.18;98.66;100156.81;4975655;28;1216;-56
2022/05/12 01:28:15;;;;;;;;;;;;;;;9.36;100.00;100151.41;4975535;28;820;-55
2022/05/12 01:30:41;;;;;;;;;;;;;;;9.66;100.00;100150.38;4975442;28;866;-55
2022/05/12 01:33:08;;;;;;;;;;;;;;;9.89;99.71;100148.09;4975458;28;835;-56
2022/05/12 01:35:35;;;;;;;;;;;;;;;10.06;99.07;100143.03;4975296;28;883;-56
2022/05/12 01:38:02;;;;;;;;;;;;;;;10.17;98.21;100149.34;4975227;28;907;-55
2022/05/12 01:40:29;;;;;;;;;;;;;;;10.18;97.06;100148.19;4975055;28;1938;-56
2022/05/12 01:42:55;;;;;;;;;;;;;;;10.15;97.05;100143.44;4975229;28;910;-56
2022/05/12 01:45:22;;;;;;;;;;;;;;;10.16;96.76;100145.81;4975216;28;863;-57
2022/05/12 01:47:50;;;;;;;;;;;;;;;10.22;96.38;100143.47;4975189;28;1026;-55
2022/05/12 01:50:17;;;;;;;;;;;;;;;10.19;95.92;100142.25;4974953;28;846;-56
2022/05/12 01:52:44;;;;;;;;;;;;;;;10.12;95.78;100138.69;4974977;28;924;-56
2022/05/12 01:55:15;;;;;;;;;;;;;;;10.08;95.96;100148.94;4974868;28;935;-56
2022/05/12 01:57:45;;;;;;;;;;;;;;;9.98;95.87;100145.75;4975185;28;883;-56
2022/05/12 02:00:15;;;;;;;;;;;;;;;9.96;96.10;100147.31;4973574;28;1882;-56
2022/05/12 02:02:41;;;;;;;;;;;;;;;9.96;96.33;100144.56;4974886;28;827;-56
2022/05/12 02:05:10;;;;;;;;;;;;;;;9.94;96.01;100147.72;4974867;28;811;-56
2022/05/12 02:07:45;;;;;;;;;;;;;;;9.97;95.95;100146.16;4974724;28;926;-55
2022/05/12 02:10:14;;;;;;;;;;;;;;;9.97;95.77;100140.63;4974680;28;851;-56
2022/05/12 02:12:41;;;;;;;;;;;;;;;9.97;95.84;100151.69;4974595;28;883;-56
2022/05/12 02:15:09;;;;;;;;;;;;;;;10.02;95.40;100149.31;4974600;28;920;-56
2022/05/12 02:17:35;;;;;;;;;;;;;;;10.08;95.10;100151.72;4974617;28;848;-56
2022/05/12 02:20:02;;;;;;;;;;;;;;;10.08;94.51;100152.50;4974498;28;931;-56
2022/05/12 02:22:30;;;;;;;;;;;;;;;10.05;94.33;100146.94;4974384;28;1987;-56
2022/05/12 02:24:55;;;;;;;;;;;;;;;10.02;94.27;100152.06;4974627;28;1082;-55
2022/05/12 02:27:22;;;;;;;;;;;;;;;10.01;93.76;100147.75;4974164;28;1387;-56
2022/05/12 02:29:49;;;;;;;;;;;;;;;9.96;94.11;100145.38;4974400;28;874;-56
2022/05/12 02:32:15;;;;;;;;;;;;;;;9.91;94.18;100151.25;4973536;28;844;-56
2022/05/12 02:34:42;;;;;;;;;;;;;;;9.83;94.69;100146.88;4974285;28;808;-56
2022/05/12 02:37:09;;;;;;;;;;;;;;;9.77;94.93;100146.50;4974247;28;827;-56
2022/05/12 02:39:37;;;;;;;;;;;;;;;9.43;95.02;100112.84;4956698;28;791;-56
2022/05/12 02:42:05;;;;;;;;;;;;;;;9.53;95.67;100141.63;4974001;28;1926;-56
2022/05/12 02:44:32;;;;;;;;;;;;;;;9.43;95.99;100150.66;4973994;28;896;-55
2022/05/12 02:46:58;;;;;;;;;;;;;;;9.36;96.34;100145.88;4974152;28;862;-56
2022/05/12 02:49:25;;;;;;;;;;;;;;;9.35;96.47;100155.34;4974066;28;812;-56
2022/05/12 02:51:52;;;;;;;;;;;;;;;9.36;96.55;100151.41;4973960;28;879;-56
2022/05/12 02:54:19;;;;;;;;;;;;;;;9.40;96.04;100153.00;4973910;28;883;-56
2022/05/12 02:56:46;;;;;;;;;;;;;;;9.45;95.71;100157.34;4973680;28;952;-55
2022/05/12 02:59:12;;;;;;;;;;;;;;;9.48;95.26;100153.06;4973982;28;1029;-54
2022/05/12 03:01:40;;;;;;;;;;;;;;;9.58;94.96;100147.59;4973742;28;1949;-55
2022/05/12 03:04:07;;;;;;;;;;;;;;;9.63;94.42;100153.91;4973752;28;1138;-56
2022/05/12 03:06:34;;;;;;;;;;;;;;;9.66;93.97;100155.88;4974005;28;820;-56
2022/05/12 03:09:01;;;;;;;;;;;;;;;9.63;93.41;100159.44;4973730;28;938;-56
2022/05/12 03:11:28;;;;;;;;;;;;;;;9.59;93.20;100160.19;4973699;28;808;-56
2022/05/12 03:13:54;;;;;;;;;;;;;;;9.51;93.68;100158.56;4973500;28;975;-55
2022/05/12 03:16:22;;;;;;;;;;;;;;;9.53;93.78;100158.97;4973587;28;943;-55
2022/05/12 03:18:51;;;;;;;;;;;;;;;9.61;93.33;100162.56;4973351;28;927;-56
2022/05/12 03:21:18;;;;;;;;;;;;;;;9.66;92.77;100167.72;4973355;28;1950;-56
2022/05/12 03:23:45;;;;;;;;;;;;;;;9.71;92.65;100163.81;4955934;28;1646;-57
2022/05/12 03:26:11;;;;;;;;;;;;;;;9.79;91.90;100170.94;4973080;28;1494;-56
2022/05/12 03:28:39;;;;;;;;;;;;;;;9.89;91.48;100169.41;4973321;28;855;-56
2022/05/12 03:31:07;;;;;;;;;;;;;;;9.95;91.60;100176.13;4973331;28;799;-56
2022/05/12 03:33:35;;;;;;;;;;;;;;;10.10;91.12;100175.00;4973117;28;960;-53
2022/05/12 03:36:01;;;;;;;;;;;;;;;10.26;89.53;100168.31;4973238;28;823;-54
2022/05/12 03:38:28;;;;;;;;;;;;;;;10.41;88.47;100172.72;4973032;28;819;-56
2022/05/12 03:40:54;;;;;;;;;;;;;;;10.53;88.26;100179.84;4973016;28;1906;-56
2022/05/12 03:46:05;;;;;;;;;;;;;;;10.73;87.39;100177.47;4973049;28;700;-56
2022/05/12 03:48:34;;;;;;;;;;;;;;;10.85;86.57;100184.63;4973129;28;879;-55
2022/05/12 03:51:02;;;;;;;;;;;;;;;10.91;86.34;100181.06;4972975;28;867;-56
2022/05/12 03:53:30;;;;;;;;;;;;;;;10.94;86.02;100183.00;4972892;28;923;-55
2022/05/12 03:55:57;;;;;;;;;;;;;;;11.00;85.73;100189.72;4972781;28;934;-55
2022/05/12 03:58:24;;;;;;;;;;;;;;;11.04;85.67;100192.50;4973169;28;847;-56
2022/05/12 04:00:52;;;;;;;;;;;;;;;11.13;85.10;100189.34;4972726;28;1875;-56
2022/05/12 04:03:19;;;;;;;;;;;;;;;11.30;84.52;100196.81;4972879;28;866;-55
2022/05/12 04:05:47;;;;;;;;;;;;;;;11.51;84.53;100195.22;4972862;28;1072;-56
2022/05/12 04:08:13;;;;;;;;;;;;;;;11.72;83.08;100202.66;4972669;28;854;-56
2022/05/12 04:10:40;;;;;;;;;;;;;;;11.82;82.88;100201.81;4972715;28;832;-56
2022/05/12 04:13:07;;;;;;;;;;;;;;;11.87;82.11;100203.41;4972712;28;961;-56
2022/05/12 04:15:34;;;;;;;;;;;;;;;11.90;81.68;100213.69;4972786;28;847;-55
2022/05/12 04:18:02;;;;;;;;;;;;;;;11.98;81.91;100210.50;4972635;28;871;-56
2022/05/12 04:20:29;;;;;;;;;;;;;;;12.11;81.44;100215.59;4972724;28;1887;-55
2022/05/12 04:22:56;;;;;;;;;;;;;;;12.18;81.11;100216.38;4972527;28;883;-56
2022/05/12 04:25:23;;;;;;;;;;;;;;;12.23;81.20;100213.16;4972764;28;1187;-57
2022/05/12 04:27:50;;;;;;;;;;;;;;;12.30;81.07;100217.88;4972494;28;867;-55
2022/05/12 04:30:20;;;;;;;;;;;;;;;12.40;80.72;100214.25;4972601;28;823;-55
2022/05/12 04:32:46;;;;;;;;;;;;;;;12.44;79.80;100217.81;4955333;28;843;-56
2022/05/12 04:35:16;;;;;;;;;;;;;;;12.42;79.33;100216.63;4972559;28;870;-56
2022/05/12 04:37:48;;;;;;;;;;;;;;;12.38;79.11;100219.41;4971117;28;733;-56
2022/05/12 04:40:17;;;;;;;;;;;;;;;12.39;79.37;100223.75;4972652;28;1906;-55
2022/05/12 04:42:44;;;;;;;;;;;;;;;12.36;78.94;100221.81;4972508;28;831;-56
2022/05/12 04:45:11;;;;;;;;;;;;;;;12.33;78.91;100230.94;4972326;28;891;-56
2022/05/12 04:47:38;;;;;;;;;;;;;;;12.37;78.27;100226.13;4972455;28;863;-56
2022/05/12 04:50:07;;;;;;;;;;;;;;;12.49;78.75;100229.66;4972374;28;855;-55
2022/05/12 04:52:33;;;;;;;;;;;;;;;12.56;78.01;100224.84;4955366;28;1227;-51
2022/05/12 04:55:00;;;;;;;;;;;;;;;12.70;77.32;100232.28;4974814;28;827;-56
2022/05/12 04:57:26;;;;;;;;;;;;;;;12.98;76.13;100231.28;4976689;28;760;-55
2022/05/12 04:59:55;;;;;;;;;;;;;;;13.30;74.58;100233.03;4976041;28;823;-56
2022/05/12 05:02:22;;;;;;;;;;;;;;;13.38;74.90;100234.56;4976069;28;1894;-56
2022/05/12 05:04:49;;;;;;;;;;;;;;;13.55;74.45;100235.56;4976209;28;866;-55
2022/05/12 05:07:16;;;;;;;;;;;;;;;13.68;73.29;100239.41;4976488;28;858;-55
2022/05/12 05:09:43;;;;;;;;;;;;;;;13.90;72.80;100236.38;4976379;28;1265;-55
2022/05/12 05:12:10;;;;;;;;;;;;;;;14.08;73.44;100233.38;4975975;28;947;-56
2022/05/12 05:14:36;;;;;;;;;;;;;;;14.40;73.43;100237.72;4975950;28;926;-56
2022/05/12 05:17:03;;;;;;;;;;;;;;;14.86;72.45;100234.31;4976098;28;811;-56
2022/05/12 05:19:31;;;;;;;;;;;;;;;15.41;70.63;100231.44;4976300;28;752;-55
2022/05/12 05:21:58;;;;;;;;;;;;;;;15.87;69.59;100236.16;4975766;28;1976;-55
2022/05/12 05:24:24;;;;;;;;;;;;;;;16.33;66.78;100234.41;4975881;28;1041;-56
2022/05/12 05:26:51;;;;;;;;;;;;;;;16.68;64.73;100232.03;4974295;28;1426;-56
2022/05/12 05:29:18;;;;;;;;;;;;;;;16.94;62.08;100237.84;4975574;28;835;-55
2022/05/12 05:31:44;;;;;;;;;;;;;;;17.09;61.56;100244.66;4975738;28;784;-56
2022/05/12 05:34:12;;;;;;;;;;;;;;;17.78;60.72;100240.09;4975371;28;858;-55
2022/05/12 05:36:42;;;;;;;;;;;;;;;19.16;55.68;100245.56;4975595;28;867;-56
2022/05/12 05:39:17;;;;;;;;;;;;;;;20.12;51.78;100245.44;4975255;28;867;-55
2022/05/12 05:41:45;;;;;;;;;;;;;;;21.18;49.96;100242.50;4975203;28;1918;-56
2022/05/12 05:44:11;;;;;;;;;;;;;;;21.91;47.86;100243.84;4975434;28;943;-56
2022/05/12 05:46:38;;;;;;;;;;;;;;;22.14;47.74;100241.59;4975125;28;800;-55
2022/05/12 05:49:05;;;;;;;;;;;;;;;22.88;45.53;100241.38;4975140;28;855;-56
2022/05/12 05:54:16;;;;;;;;;;;;;;;23.54;44.18;100240.53;4975099;28;658;-56
2022/05/12 05:56:43;;;;;;;;;;;;;;;23.92;42.49;100244.59;4975066;28;895;-55
2022/05/12 05:59:11;;;;;;;;;;;;;;;24.17;41.86;100241.22;4975002;28;847;-56
2022/05/12 06:01:38;;;;;;;;;;;;;;;24.39;42.32;100240.84;4974731;28;1890;-56
2022/05/12 06:04:05;;;;;;;;;;;;;;;25.01;41.53;100236.16;4975193;28;848;-57
2022/05/12 06:06:32;;;;;;;;;;;;;;;25.37;40.84;100236.91;4973411;28;1086;-56
2022/05/12 06:08:59;;;;;;;;;;;;;;;25.64;39.91;100240.56;4974735;28;901;-56
2022/05/12 06:11:26;;;;;;;;;;;;;;;25.89;39.64;100235.47;4974749;28;871;-56
2022/05/12 06:13:53;;;;;;;;;;;;;;;26.21;39.14;100239.13;4974611;28;913;-54
2022/05/12 06:16:20;;;;;;;;;;;;;;;26.53;38.97;100233.47;4974648;28;795;-56
2022/05/12 06:18:47;;;;;;;;;;;;;;;26.82;38.73;100236.03;4974526;28;902;-57
2022/05/12 06:21:14;;;;;;;;;;;;;;;27.24;37.22;100242.22;4974380;28;1898;-57
2022/05/12 06:23:40;;;;;;;;;;;;;;;27.51;37.58;100231.50;4974719;28;923;-57
2022/05/12 06:26:13;;;;;;;;;;;;;;;27.54;37.41;100239.75;4974335;28;1382;-56
2022/05/12 06:28:41;;;;;;;;;;;;;;;27.55;36.48;100241.34;4974355;28;883;-57
2022/05/12 06:31:08;;;;;;;;;;;;;;;27.90;36.07;100238.09;4974249;28;910;-57
2022/05/12 06:33:35;;;;;;;;;;;;;;;27.87;37.53;100236.28;4974371;28;839;-55
2022/05/12 06:36:05;;;;;;;;;;;;;;;28.25;36.43;100236.06;4974056;28;892;-56
2022/05/12 06:38:34;;;;;;;;;;;;;;;28.32;35.95;100246.16;4974177;28;887;-57
2022/05/12 06:41:01;;;;;;;;;;;;;;;28.00;36.48;100235.03;4974013;28;1914;-57
2022/05/12 06:43:29;;;;;;;;;;;;;;;28.43;36.47;100231.94;4974099;28;811;-56
2022/05/12 06:45:56;;;;;;;;;;;;;;;28.70;36.05;100230.41;4974104;28;820;-56
2022/05/12 06:48:24;;;;;;;;;;;;;;;29.34;35.35;100221.19;4973967;28;903;-56
2022/05/12 06:50:51;;;;;;;;;;;;;;;29.77;34.93;100226.47;4974475;28;776;-56
2022/05/12 06:53:18;;;;;;;;;;;;;;;29.67;34.73;100228.81;4974368;28;816;-56
2022/05/12 06:55:45;;;;;;;;;;;;;;;29.71;34.77;100223.63;4973886;28;890;-53
2022/05/12 06:58:17;;;;;;;;;;;;;;;29.87;35.06;100228.47;4974268;28;815;-56
2022/05/12 07:00:44;;;;;;;;;;;;;;;30.10;34.11;100228.28;4972564;28;1953;-55
2022/05/12 07:03:13;;;;;;;;;;;;;;;30.04;34.80;100231.19;4973743;28;867;-56
2022/05/12 07:05:40;;;;;;;;;;;;;;;29.65;35.30;100228.56;4973634;28;914;-55
2022/05/12 07:08:07;;;;;;;;;;;;;;;29.79;35.61;100224.63;4973557;28;874;-56
2022/05/12 07:10:34;;;;;;;;;;;;;;;29.70;35.15;100216.38;4973638;28;838;-56
2022/05/12 07:13:01;;;;;;;;;;;;;;;29.50;36.23;100215.41;4973620;28;851;-56
2022/05/12 07:15:28;;;;;;;;;;;;;;;29.64;35.78;100218.47;4973492;28;879;-56
2022/05/12 07:17:56;;;;;;;;;;;;;;;29.62;36.16;100219.00;4973380;28;934;-56
2022/05/12 07:28:40;;;;;;;;;;;;;;;30.73;34.51;100215.84;4959146;28;633;-55
2022/05/12 07:31:09;;;;;;;;;;;;;;;30.85;33.62;100218.59;4973764;28;887;-56
2022/05/12 07:33:43;;;;;;;;;;;;;;;31.11;33.39;100218.84;4973113;28;832;-56
2022/05/12 07:36:13;;;;;;;;;;;;;;;30.80;33.49;100220.19;4973241;28;834;-55
2022/05/12 07:38:42;;;;;;;;;;;;;;;30.37;33.71;100218.00;4973219;28;859;-56
2022/05/12 07:41:11;;;;;;;;;;;;;;;30.71;34.04;100215.63;4972978;28;1914;-56
2022/05/12 07:43:40;;;;;;;;;;;;;;;30.72;33.14;100211.44;4956272;28;928;-56
2022/05/12 07:46:07;;;;;;;;;;;;;;;30.88;32.07;100211.84;4973072;28;820;-55
2022/05/12 07:48:34;;;;;;;;;;;;;;;30.73;32.84;100213.00;4972889;28;847;-56
2022/05/12 07:51:00;;;;;;;;;;;;;;;30.91;33.84;100219.34;4973089;28;843;-56
2022/05/12 07:53:27;;;;;;;;;;;;;;;31.08;33.15;100214.19;4973089;28;868;-55
2022/05/12 07:55:54;;;;;;;;;;;;;;;31.44;32.40;100211.19;4972890;28;796;-55
2022/05/12 07:58:21;;;;;;;;;;;;;;;31.39;31.18;100214.09;4972881;28;836;-56
2022/05/12 08:00:48;;;;;;;;;;;;;;;31.00;31.87;100207.53;4972767;28;1891;-55
2022/05/12 08:03:14;;;;;;;;;;;;;;;31.29;32.80;100205.91;4972723;28;867;-55
2022/05/12 08:05:41;;;;;;;;;;;;;;;31.66;29.79;100212.19;4972789;28;804;-55
2022/05/12 08:08:09;;;;;;;;;;;;;;;31.66;31.23;100203.63;4972783;28;851;-55
2022/05/12 08:10:36;;;;;;;;;;;;;;;31.24;32.58;100203.09;4972737;28;823;-55
2022/05/12 08:13:04;;;;;;;;;;;;;;;31.12;31.18;100206.13;4972681;28;911;-56
2022/05/12 08:15:31;;;;;;;;;;;;;;;31.24;32.50;100203.09;4972903;28;883;-56
2022/05/12 08:17:58;;;;;;;;;;;;;;;31.73;31.18;100205.88;4972709;28;854;-56
2022/05/12 08:20:25;;;;;;;;;;;;;;;31.39;31.14;100205.53;4972504;28;1969;-54
2022/05/12 08:22:51;;;;;;;;;;;;;;;31.16;31.15;100202.19;4972720;28;1122;-55
2022/05/12 08:25:18;;;;;;;;;;;;;;;31.08;31.35;100199.16;4972960;28;1053;-55
2022/05/12 08:27:47;;;;;;;;;;;;;;;30.68;32.10;100204.50;4972429;28;1416;-56
2022/05/12 08:30:16;;;;;;;;;;;;;;;30.92;31.50;100203.78;4975058;28;882;-56
2022/05/12 08:32:42;;;;;;;;;;;;;;;31.27;29.48;100193.47;4976619;28;831;-54
2022/05/12 08:35:09;;;;;;;;;;;;;;;30.90;29.32;100198.59;4976874;28;768;-55
2022/05/12 08:37:38;;;;;;;;;;;;;;;30.91;31.28;100202.22;4975557;28;1055;-56
2022/05/12 08:40:07;;;;;;;;;;;;;;;31.31;29.96;100202.53;4976471;28;836;-55
2022/05/12 08:42:37;;;;;;;;;;;;;;;31.47;29.53;100195.06;4976418;28;1903;-56
2022/05/12 08:45:05;;;;;;;;;;;;;;;31.57;30.64;100201.16;4976322;28;851;-55
2022/05/12 08:47:37;;;;;;;;;;;;;;;31.60;29.67;100200.88;4976184;28;895;-56
2022/05/12 08:50:03;;;;;;;;;;;;;;;31.41;28.76;100202.91;4976271;28;866;-56
2022/05/12 08:52:44;;;;;;;;;;;;;;;31.30;29.09;100198.09;4976260;28;881;-55
2022/05/12 08:55:15;;;;;;;;;;;;;;;31.24;29.05;100195.34;4976350;28;949;-56
2022/05/12 08:57:51;;;;;;;;;;;;;;;30.83;29.08;100193.47;4976034;28;839;-56
2022/05/12 09:00:19;;;;;;;;;;;;;;;30.95;29.44;100196.22;4976001;28;1082;-55
2022/05/12 09:02:46;;;;;;;;;;;;;;;30.85;29.82;100190.81;4975765;28;1930;-55
2022/05/12 09:05:15;;;;;;;;;;;;;;;30.97;29.06;100187.88;4975827;28;930;-54
2022/05/12 09:07:55;;;;;;;;;;;;;;;30.99;27.54;100186.03;4976011;28;800;-55
2022/05/12 09:10:53;;;;;;;;;;;;;;;31.16;28.52;100185.06;4975916;28;807;-56
2022/05/12 09:13:23;;;;;;;;;;;;;;;31.26;29.47;100189.06;4943078;28;1431;-54
2022/05/12 09:15:56;;;;;;;;;;;;;;;31.28;28.01;100184.38;4975632;28;855;-55
2022/05/12 09:18:29;;;;;;;;;;;;;;;31.18;28.12;100183.22;4975823;28;832;-55
2022/05/12 09:21:00;;;;;;;;;;;;;;;30.66;28.42;100185.06;4975461;28;1886;-55
2022/05/12 09:23:27;;;;;;;;;;;;;;;30.62;29.11;100181.75;4975649;28;1357;-55
2022/05/12 09:25:54;;;;;;;;;;;;;;;30.70;28.98;100179.84;4962621;28;1537;-55
2022/05/12 09:28:25;;;;;;;;;;;;;;;30.80;28.93;100171.69;4995375;28;861;-56
2022/05/12 09:30:52;;;;;;;;;;;;;;;30.97;29.26;100177.25;4994859;28;812;-56
2022/05/12 09:33:39;;;;;;;;;;;;;;;30.69;30.16;100178.28;4994759;28;882;-56
2022/05/12 09:36:13;;;;;;;;;;;;;;;30.13;30.07;100178.81;4994612;28;2183;-56
2022/05/12 09:38:43;;;;;;;;;;;;;;;29.84;30.48;100172.53;4994789;28;866;-56
2022/05/12 09:41:31;;;;;;;;;;;;;;;29.66;30.42;100173.13;4994317;28;1914;-56
2022/05/12 09:44:09;;;;;;;;;;;;;;;29.37;28.43;100169.69;4984960;28;1866;-56
2022/05/12 09:46:35;;;;;;;;;;;;;;;29.17;30.53;100167.97;4994684;28;859;-56
2022/05/12 09:49:23;;;;;;;;;;;;;;;29.34;28.80;100167.91;4994707;28;855;-55
2022/05/12 09:51:50;;;;;;;;;;;;;;;29.67;29.01;100161.22;4994577;28;1825;-56
2022/05/12 09:54:23;;;;;;;;;;;;;;;30.01;30.74;100165.94;4994592;28;1057;-56
2022/05/12 09:56:58;;;;;;;;;;;;;;;30.17;30.02;100162.19;4994361;28;1127;-56
2022/05/12 10:28:44;;;;;;;;;;;;;;;30.34;22.73;100144.94;5033225;28;1497;-55
2022/05/12 10:31:40;;;;;;;;;;;;;;;30.78;24.17;100151.47;5033337;28;932;-56
2022/05/12 10:34:13;;;;;;;;;;;;;;;31.45;22.99;100143.41;4952965;29;1249;-56
2022/05/12 10:36:41;;;;;;;;;;;;;;;31.79;23.23;100146.53;4952935;29;924;-54
2022/05/12 10:39:23;;;;;;;;;;;;;;;31.37;24.45;100134.69;4952920;29;974;-55
2022/05/12 10:42:04;;;;;;;;;;;;;;;31.89;22.87;100144.06;4952748;29;1911;-56
2022/05/12 10:44:41;;;;;;;;;;;;;;;32.11;23.00;100137.22;4952712;29;986;-56
2022/05/12 10:47:17;;;;;;;;;;;;;;;32.40;23.41;100137.50;4953054;29;887;-55
2022/05/12 10:49:55;;;;;;;;;;;;;;;32.40;23.19;100135.41;4952740;29;885;-56
2022/05/12 10:52:28;;;;;;;;;;;;;;;31.09;24.71;100132.97;4952300;28;839;-56
2022/05/12 10:55:05;;;;;;;;;;;;;;;30.68;26.07;100138.88;4952556;29;807;-56
2022/05/12 10:57:50;;;;;;;;;;;;;;;31.12;25.72;100125.41;4952612;29;1057;-56
2022/05/12 11:00:19;;;;;;;;;;;;;;;31.38;24.95;100130.50;4952598;29;867;-56
2022/05/12 11:02:50;;;;;;;;;;;;;;;30.77;25.11;100123.47;4952412;29;1934;-56
2022/05/12 11:05:27;;;;;;;;;;;;;;;30.67;24.96;100129.56;4936483;29;807;-55
2022/05/12 11:08:00;;;;;;;;;;;;;;;30.58;25.03;100127.09;4952332;29;942;-56
2022/05/12 11:10:29;;;;;;;;;;;;;;;30.57;25.02;100128.38;4990508;28;938;-56
2022/05/12 11:13:01;;;;;;;;;;;;;;;30.86;25.11;100125.97;5032349;28;960;-56
2022/05/12 11:15:48;;;;;;;;;;;;;;;31.05;25.00;100129.66;5032844;28;869;-56
2022/05/12 11:18:19;;;;;;;;;;;;;;;31.47;24.40;100121.59;5032282;28;1985;-56
2022/05/12 11:20:51;;;;;;;;;;;;;;;31.79;24.25;100125.78;5032272;28;1949;-56
2022/05/12 11:23:36;;;;;;;;;;;;;;;31.56;23.59;100114.72;5032226;28;922;-56
2022/05/12 11:26:17;;;;;;;;;;;;;;;30.96;23.64;100114.97;5034418;28;1360;-56
2022/05/12 11:31:41;;;;;;;;;;;;;;;31.41;23.83;100103.75;5052527;28;624;-56
2022/05/12 11:34:10;;;;;;;;;;;;;;;31.00;23.13;100110.50;5052004;28;798;-56
2022/05/12 11:36:40;;;;;;;;;;;;;;;30.81;24.29;100106.84;5051960;28;814;-56
2022/05/12 11:39:25;;;;;;;;;;;;;;;31.43;23.33;100108.91;5052108;28;942;-56
2022/05/12 11:42:11;;;;;;;;;;;;;;;31.74;23.29;100102.47;5051949;28;1898;-56
2022/05/12 11:44:58;;;;;;;;;;;;;;;31.78;22.79;100107.88;5051690;28;889;-54
2022/05/12 11:47:24;;;;;;;;;;;;;;;32.10;23.74;100096.44;5051541;28;1290;-56
2022/05/12 11:50:24;;;;;;;;;;;;;;;31.97;23.41;100092.75;5051963;28;870;-56
2022/05/12 11:52:53;;;;;;;;;;;;;;;31.97;23.37;100092.75;5040421;28;1362;-56
2022/05/12 11:55:26;;;;;;;;;;;;;;;31.73;22.19;100091.59;5051574;28;834;-56
2022/05/12 11:58:12;;;;;;;;;;;;;;;31.45;23.01;100087.09;5051633;28;853;-56
2022/05/12 12:00:41;;;;;;;;;;;;;;;31.65;22.22;100082.13;5051765;28;1955;-56
2022/05/12 12:03:19;;;;;;;;;;;;;;;31.93;22.76;100079.53;5051524;28;888;-56
2022/05/12 12:05:49;;;;;;;;;;;;;;;32.24;21.08;100080.09;5051476;28;810;-56
2022/05/12 12:08:34;;;;;;;;;;;;;;;32.39;22.08;100084.47;5051511;28;869;-56
2022/05/12 12:11:17;;;;;;;;;;;;;;;32.47;22.84;100073.91;5051350;28;889;-55
2022/05/12 12:13:45;;;;;;;;;;;;;;;32.27;22.53;100070.41;5051310;28;844;-56
2022/05/12 12:16:13;;;;;;;;;;;;;;;32.33;23.41;100076.00;5051468;28;865;-56
2022/05/12 12:18:40;;;;;;;;;;;;;;;32.34;22.13;100074.69;5051479;28;841;-56
2022/05/12 12:21:25;;;;;;;;;;;;;;;32.37;23.02;100069.94;5051205;28;1955;-56
2022/05/12 12:24:08;;;;;;;;;;;;;;;32.35;23.13;100068.41;5051307;28;830;-56
2022/05/12 12:26:37;;;;;;;;;;;;;;;32.32;22.56;100065.88;5051220;28;1385;-56
2022/05/12 12:29:09;;;;;;;;;;;;;;;32.58;22.86;100050.06;5051256;28;902;-56
2022/05/12 12:31:37;;;;;;;;;;;;;;;33.00;21.42;100044.50;5051307;28;857;-56
2022/05/12 12:34:24;;;;;;;;;;;;;;;33.19;21.55;100044.34;5051187;28;881;-56
2022/05/12 12:37:08;;;;;;;;;;;;;;;33.40;21.54;100036.56;5051285;28;876;-56
2022/05/12 12:39:44;;;;;;;;;;;;;;;33.48;21.01;100033.75;5051092;28;906;-56
2022/05/12 12:42:21;;;;;;;;;;;;;;;33.62;22.08;100032.38;5051053;28;1972;-54
2022/05/12 12:44:52;;;;;;;;;;;;;;;33.44;22.00;100024.75;5051295;28;954;-55
2022/05/12 12:47:21;;;;;;;;;;;;;;;33.18;22.14;100032.13;5051288;28;865;-55
2022/05/12 12:49:48;;;;;;;;;;;;;;;33.03;22.16;100035.56;5051396;28;806;-57
2022/05/12 12:52:15;;;;;;;;;;;;;;;32.85;22.82;100022.19;5051351;28;889;-56
2022/05/12 12:57:29;;;;;;;;;;;;;;;32.75;21.38;100024.72;5051363;28;668;-56
2022/05/12 12:59:58;;;;;;;;;;;;;;;32.86;21.76;100020.84;5051168;28;854;-56
2022/05/12 13:02:32;;;;;;;;;;;;;;;33.17;22.02;100016.28;5050897;28;1894;-56
2022/05/12 13:05:03;;;;;;;;;;;;;;;33.00;21.35;100013.75;5050907;28;861;-56
2022/05/12 13:07:31;;;;;;;;;;;;;;;33.10;22.18;100014.09;5050985;28;791;-56
2022/05/12 13:09:58;;;;;;;;;;;;;;;32.95;21.68;100011.81;5050944;28;802;-54
2022/05/12 13:12:26;;;;;;;;;;;;;;;32.87;22.07;100006.00;5050755;28;970;-56
2022/05/12 13:14:53;;;;;;;;;;;;;;;32.55;22.84;100006.94;5051125;28;844;-56
2022/05/12 13:17:22;;;;;;;;;;;;;;;32.59;21.95;100003.75;5054469;28;847;-56
2022/05/12 13:19:49;;;;;;;;;;;;;;;32.98;22.40;100001.34;5054430;28;1162;-56
2022/05/12 13:22:24;;;;;;;;;;;;;;;32.86;21.27;100001.59;5054352;28;1894;-56
2022/05/12 13:24:51;;;;;;;;;;;;;;;32.79;21.54;100001.50;5054351;28;1030;-56
2022/05/12 13:27:19;;;;;;;;;;;;;;;32.94;22.16;99993.09;5054183;28;1206;-57
2022/05/12 13:29:46;;;;;;;;;;;;;;;33.22;22.28;99992.44;5054469;28;807;-54
2022/05/12 13:32:32;;;;;;;;;;;;;;;32.96;22.18;99999.03;5054153;28;910;-56
2022/05/12 13:35:26;;;;;;;;;;;;;;;32.68;22.13;99993.94;5054486;28;857;-56
2022/05/12 13:37:54;;;;;;;;;;;;;;;32.05;22.07;100005.06;5051851;28;1852;-57
2022/05/12 13:40:57;;;;;;;;;;;;;;;31.80;22.30;100007.31;5054497;28;868;-56
2022/05/12 13:43:29;;;;;;;;;;;;;;;31.70;22.17;100004.09;4992643;28;1449;-56
2022/05/12 13:46:04;;;;;;;;;;;;;;;31.60;21.38;100000.13;4992575;28;938;-56
2022/05/12 13:48:30;;;;;;;;;;;;;;;31.65;23.17;100002.13;4992564;28;862;-56
2022/05/12 13:50:58;;;;;;;;;;;;;;;31.46;22.97;100002.94;4992428;28;1454;-56
2022/05/12 13:53:27;;;;;;;;;;;;;;;31.30;22.83;100001.09;4992335;28;942;-56
2022/05/12 13:56:26;;;;;;;;;;;;;;;31.34;22.47;99993.78;4992411;28;864;-56
2022/05/12 13:58:52;;;;;;;;;;;;;;;31.52;22.27;99994.28;4960938;28;1281;-56
2022/05/12 14:01:30;;;;;;;;;;;;;;;31.64;21.65;99992.00;4992244;28;1957;-56